sensor_id;sensor_type;location;lat;lon;timestamp;temperature;humidity
56374;DHT22;58212;47.034;7.376;2023-04-03T00:01:04;8.50;99.90
56374;DHT22;58212;47.034;7.376;2023-04-03T00:03:32;8.50;99.90
56374;DHT22;58212;47.034;7.376;2023-04-03T00:06:00;8.70;99.90
56374;DHT22;58212;47.034;7.376;2023-04-03T00:08:27;8.50;99.90
56374;DHT22;58212;47.034;7.376;2023-04-03T00:10:57;8.30;99.90
56374;DHT22;58212;47.034;7.376;2023-04-03T00:13:24;8.10;99.90
56374;DHT22;58212;47.034;7.376;2023-04-03T00:15:51;8.30;99.90
56374;DHT22;58212;47.034;7.376;2023-04-03T00:18:18;8.40;99.90
56374;DHT22;58212;47.034;7.376;2023-04-03T00:20:45;8.00;99.90
56374;DHT22;58212;47.034;7.376;2023-04-03T00:23:12;7.80;99.90
56374;DHT22;58212;47.034;7.376;2023-04-03T00:25:39;8.10;99.90
56374;DHT22;58212;47.034;7.376;2023-04-03T00:28:07;8.40;99.90
56374;DHT22;58212;47.034;7.376;2023-04-03T00:30:34;8.40;99.90
56374;DHT22;58212;47.034;7.376;2023-04-03T00:33:01;8.30;99.90
56374;DHT22;58212;47.034;7.376;2023-04-03T00:35:29;8.10;99.90
56374;DHT22;58212;47.034;7.376;2023-04-03T00:37:56;8.30;99.90
56374;DHT22;58212;47.034;7.376;2023-04-03T00:40:24;8.20;99.90
56374;DHT22;58212;47.034;7.376;2023-04-03T00:42:56;8.20;99.90
56374;DHT22;58212;47.034;7.376;2023-04-03T00:45:31;8.20;99.90
56374;DHT22;58212;47.034;7.376;2023-04-03T00:48:01;8.40;99.90
56374;DHT22;58212;47.034;7.376;2023-04-03T00:50:33;8.40;99.90
56374;DHT22;58212;47.034;7.376;2023-04-03T00:53:01;8.40;99.90
56374;DHT22;58212;47.034;7.376;2023-04-03T00:55:29;8.40;99.90
56374;DHT22;58212;47.034;7.376;2023-04-03T00:57:58;8.30;99.90
56374;DHT22;58212;47.034;7.376;2023-04-03T01:00:26;8.10;99.90
56374;DHT22;58212;47.034;7.376;2023-04-03T01:02:59;8.00;99.90
56374;DHT22;58212;47.034;7.376;2023-04-03T01:05:27;8.00;99.90
56374;DHT22;58212;47.034;7.376;2023-04-03T01:07:54;7.80;99.90
56374;DHT22;58212;47.034;7.376;2023-04-03T01:10:22;7.90;99.90
56374;DHT22;58212;47.034;7.376;2023-04-03T01:12:51;8.00;99.90
56374;DHT22;58212;47.034;7.376;2023-04-03T01:15:21;7.90;99.90
56374;DHT22;58212;47.034;7.376;2023-04-03T01:17:50;7.80;99.90
56374;DHT22;58212;47.034;7.376;2023-04-03T01:23:44;8.10;99.90
56374;DHT22;58212;47.034;7.376;2023-04-03T01:26:12;8.00;99.90
56374;DHT22;58212;47.034;7.376;2023-04-03T01:29:05;8.10;99.90
56374;DHT22;58212;47.034;7.376;2023-04-03T01:32:00;7.90;99.90
56374;DHT22;58212;47.034;7.376;2023-04-03T01:34:30;7.90;99.90
56374;DHT22;58212;47.034;7.376;2023-04-03T01:36:59;7.90;99.90
56374;DHT22;58212;47.034;7.376;2023-04-03T01:39:27;8.10;99.90
56374;DHT22;58212;47.034;7.376;2023-04-03T01:41:54;7.90;99.90
56374;DHT22;58212;47.034;7.376;2023-04-03T01:44:31;8.00;99.90
56374;DHT22;58212;47.034;7.376;2023-04-03T01:47:01;8.00;99.90
56374;DHT22;58212;47.034;7.376;2023-04-03T01:49:29;7.90;99.90
56374;DHT22;58212;47.034;7.376;2023-04-03T01:51:56;7.90;99.90
56374;DHT22;58212;47.034;7.376;2023-04-03T01:54:23;7.80;99.90
56374;DHT22;58212;47.034;7.376;2023-04-03T01:56:51;7.50;99.90
56374;DHT22;58212;47.034;7.376;2023-04-03T01:59:19;7.60;99.90
56374;DHT22;58212;47.034;7.376;2023-04-03T02:01:46;7.50;99.90
56374;DHT22;58212;47.034;7.376;2023-04-03T02:04:14;7.30;99.90
56374;DHT22;58212;47.034;7.376;2023-04-03T02:06:41;7.40;99.90
56374;DHT22;58212;47.034;7.376;2023-04-03T02:09:08;7.30;99.90
56374;DHT22;58212;47.034;7.376;2023-04-03T02:11:35;7.20;99.90
56374;DHT22;58212;47.034;7.376;2023-04-03T02:14:02;7.30;99.90
56374;DHT22;58212;47.034;7.376;2023-04-03T02:16:28;7.40;99.90
56374;DHT22;58212;47.034;7.376;2023-04-03T02:18:56;7.30;99.90
56374;DHT22;58212;47.034;7.376;2023-04-03T02:21:25;7.30;99.90
56374;DHT22;58212;47.034;7.376;2023-04-03T02:23:53;7.40;99.90
56374;DHT22;58212;47.034;7.376;2023-04-03T02:26:20;7.30;99.90
56374;DHT22;58212;47.034;7.376;2023-04-03T02:28:47;7.10;99.90
56374;DHT22;58212;47.034;7.376;2023-04-03T02:31:16;7.00;99.90
56374;DHT22;58212;47.034;7.376;2023-04-03T02:33:45;7.10;99.90
56374;DHT22;58212;47.034;7.376;2023-04-03T02:36:14;7.10;99.90
56374;DHT22;58212;47.034;7.376;2023-04-03T02:38:46;7.00;99.90
56374;DHT22;58212;47.034;7.376;2023-04-03T02:41:13;7.00;99.90
56374;DHT22;58212;47.034;7.376;2023-04-03T02:43:40;7.20;99.90
56374;DHT22;58212;47.034;7.376;2023-04-03T02:46:08;7.10;99.90
56374;DHT22;58212;47.034;7.376;2023-04-03T02:48:36;7.10;99.90
56374;DHT22;58212;47.034;7.376;2023-04-03T02:51:03;6.80;99.90
56374;DHT22;58212;47.034;7.376;2023-04-03T02:53:30;6.90;99.90
56374;DHT22;58212;47.034;7.376;2023-04-03T02:56:04;7.10;99.90
56374;DHT22;58212;47.034;7.376;2023-04-03T02:58:31;6.90;99.90
56374;DHT22;58212;47.034;7.376;2023-04-03T03:00:59;6.90;99.90
56374;DHT22;58212;47.034;7.376;2023-04-03T03:03:26;6.80;99.90
56374;DHT22;58212;47.034;7.376;2023-04-03T03:06:01;6.90;99.90
56374;DHT22;58212;47.034;7.376;2023-04-03T03:08:28;6.70;99.90
56374;DHT22;58212;47.034;7.376;2023-04-03T03:10:55;6.80;99.90
56374;DHT22;58212;47.034;7.376;2023-04-03T03:13:23;6.70;99.90
56374;DHT22;58212;47.034;7.376;2023-04-03T03:15:50;6.60;99.90
56374;DHT22;58212;47.034;7.376;2023-04-03T03:18:17;6.60;99.90
56374;DHT22;58212;47.034;7.376;2023-04-03T03:20:44;6.60;99.90
56374;DHT22;58212;47.034;7.376;2023-04-03T03:23:11;6.60;99.90
56374;DHT22;58212;47.034;7.376;2023-04-03T03:25:38;6.60;99.90
56374;DHT22;58212;47.034;7.376;2023-04-03T03:28:07;6.50;99.90
56374;DHT22;58212;47.034;7.376;2023-04-03T03:30:36;6.40;99.90
56374;DHT22;58212;47.034;7.376;2023-04-03T03:33:03;6.30;99.90
56374;DHT22;58212;47.034;7.376;2023-04-03T03:35:30;6.20;99.90
56374;DHT22;58212;47.034;7.376;2023-04-03T03:37:56;6.40;99.90
56374;DHT22;58212;47.034;7.376;2023-04-03T03:40:24;6.20;99.90
56374;DHT22;58212;47.034;7.376;2023-04-03T03:42:51;6.20;99.90
56374;DHT22;58212;47.034;7.376;2023-04-03T03:45:18;6.40;99.90
56374;DHT22;58212;47.034;7.376;2023-04-03T03:47:46;6.20;99.90
56374;DHT22;58212;47.034;7.376;2023-04-03T03:50:13;6.00;99.90
56374;DHT22;58212;47.034;7.376;2023-04-03T03:52:40;6.00;99.90
56374;DHT22;58212;47.034;7.376;2023-04-03T03:55:07;6.10;99.90
56374;DHT22;58212;47.034;7.376;2023-04-03T03:57:36;6.00;99.90
56374;DHT22;58212;47.034;7.376;2023-04-03T04:00:06;6.20;99.90
56374;DHT22;58212;47.034;7.376;2023-04-03T04:02:41;6.00;99.90
56374;DHT22;58212;47.034;7.376;2023-04-03T04:05:15;5.90;99.90
56374;DHT22;58212;47.034;7.376;2023-04-03T04:07:42;6.10;99.90
56374;DHT22;58212;47.034;7.376;2023-04-03T04:10:10;6.10;99.90
56374;DHT22;58212;47.034;7.376;2023-04-03T04:12:39;6.20;99.90
56374;DHT22;58212;47.034;7.376;2023-04-03T04:15:07;6.20;99.90
56374;DHT22;58212;47.034;7.376;2023-04-03T04:17:34;6.10;99.90
56374;DHT22;58212;47.034;7.376;2023-04-03T04:20:03;6.00;99.90
56374;DHT22;58212;47.034;7.376;2023-04-03T04:22:35;5.90;99.90
56374;DHT22;58212;47.034;7.376;2023-04-03T04:25:02;5.90;99.90
56374;DHT22;58212;47.034;7.376;2023-04-03T04:27:29;6.00;99.90
56374;DHT22;58212;47.034;7.376;2023-04-03T04:29:57;6.10;99.90
56374;DHT22;58212;47.034;7.376;2023-04-03T04:32:24;6.00;99.90
56374;DHT22;58212;47.034;7.376;2023-04-03T04:34:52;6.10;99.90
56374;DHT22;58212;47.034;7.376;2023-04-03T04:37:19;6.10;99.90
56374;DHT22;58212;47.034;7.376;2023-04-03T04:39:48;6.00;99.90
56374;DHT22;58212;47.034;7.376;2023-04-03T04:42:15;5.90;99.90
56374;DHT22;58212;47.034;7.376;2023-04-03T04:44:44;5.70;99.90
56374;DHT22;58212;47.034;7.376;2023-04-03T04:47:13;6.00;99.90
56374;DHT22;58212;47.034;7.376;2023-04-03T04:49:40;5.90;99.90
56374;DHT22;58212;47.034;7.376;2023-04-03T04:52:09;5.80;99.90
56374;DHT22;58212;47.034;7.376;2023-04-03T04:54:38;6.00;99.90
56374;DHT22;58212;47.034;7.376;2023-04-03T04:57:06;5.70;99.90
56374;DHT22;58212;47.034;7.376;2023-04-03T04:59:34;5.80;99.90
56374;DHT22;58212;47.034;7.376;2023-04-03T05:02:02;5.80;99.90
56374;DHT22;58212;47.034;7.376;2023-04-03T05:04:30;5.90;99.90
56374;DHT22;58212;47.034;7.376;2023-04-03T05:07:04;5.90;99.90
56374;DHT22;58212;47.034;7.376;2023-04-03T05:09:34;5.90;99.90
56374;DHT22;58212;47.034;7.376;2023-04-03T05:12:01;5.90;99.90
56374;DHT22;58212;47.034;7.376;2023-04-03T05:14:35;5.60;99.90
56374;DHT22;58212;47.034;7.376;2023-04-03T05:17:06;5.60;99.90
56374;DHT22;58212;47.034;7.376;2023-04-03T05:19:37;5.20;99.90
56374;DHT22;58212;47.034;7.376;2023-04-03T05:22:07;5.50;99.90
56374;DHT22;58212;47.034;7.376;2023-04-03T05:24:34;5.40;99.90
56374;DHT22;58212;47.034;7.376;2023-04-03T05:27:02;5.30;99.90
56374;DHT22;58212;47.034;7.376;2023-04-03T05:29:30;5.30;99.90
56374;DHT22;58212;47.034;7.376;2023-04-03T05:32:00;5.30;99.90
56374;DHT22;58212;47.034;7.376;2023-04-03T05:34:27;5.30;99.90
56374;DHT22;58212;47.034;7.376;2023-04-03T05:36:56;5.30;99.90
56374;DHT22;58212;47.034;7.376;2023-04-03T05:39:24;5.40;99.90
56374;DHT22;58212;47.034;7.376;2023-04-03T05:41:52;5.40;99.90
56374;DHT22;58212;47.034;7.376;2023-04-03T05:44:19;5.30;99.90
56374;DHT22;58212;47.034;7.376;2023-04-03T05:46:47;5.20;99.90
56374;DHT22;58212;47.034;7.376;2023-04-03T05:49:16;5.20;99.90
56374;DHT22;58212;47.034;7.376;2023-04-03T05:51:43;5.00;99.90
56374;DHT22;58212;47.034;7.376;2023-04-03T05:54:24;5.10;99.90
56374;DHT22;58212;47.034;7.376;2023-04-03T05:56:55;5.10;99.90
56374;DHT22;58212;47.034;7.376;2023-04-03T05:59:23;5.20;99.90
56374;DHT22;58212;47.034;7.376;2023-04-03T06:01:53;5.10;99.90
56374;DHT22;58212;47.034;7.376;2023-04-03T06:04:22;5.30;99.90
56374;DHT22;58212;47.034;7.376;2023-04-03T06:06:51;5.50;99.90
56374;DHT22;58212;47.034;7.376;2023-04-03T06:09:19;5.30;99.90
56374;DHT22;58212;47.034;7.376;2023-04-03T06:11:48;5.30;99.90
56374;DHT22;58212;47.034;7.376;2023-04-03T06:14:16;5.10;99.90
56374;DHT22;58212;47.034;7.376;2023-04-03T06:16:43;5.10;99.90
56374;DHT22;58212;47.034;7.376;2023-04-03T06:19:11;5.40;99.90
56374;DHT22;58212;47.034;7.376;2023-04-03T06:21:45;5.30;99.90
56374;DHT22;58212;47.034;7.376;2023-04-03T06:24:14;5.40;99.90
56374;DHT22;58212;47.034;7.376;2023-04-03T06:26:41;5.40;99.90
56374;DHT22;58212;47.034;7.376;2023-04-03T06:29:08;5.20;99.90
56374;DHT22;58212;47.034;7.376;2023-04-03T06:31:35;5.10;99.90
56374;DHT22;58212;47.034;7.376;2023-04-03T06:34:03;5.00;99.90
56374;DHT22;58212;47.034;7.376;2023-04-03T06:36:31;5.10;99.90
56374;DHT22;58212;47.034;7.376;2023-04-03T06:38:59;5.00;99.90
56374;DHT22;58212;47.034;7.376;2023-04-03T06:41:26;5.20;99.90
56374;DHT22;58212;47.034;7.376;2023-04-03T06:43:53;5.20;99.90
56374;DHT22;58212;47.034;7.376;2023-04-03T06:46:22;5.10;99.90
56374;DHT22;58212;47.034;7.376;2023-04-03T06:48:49;5.10;99.90
56374;DHT22;58212;47.034;7.376;2023-04-03T06:51:19;5.30;99.90
56374;DHT22;58212;47.034;7.376;2023-04-03T06:53:46;5.00;99.90
56374;DHT22;58212;47.034;7.376;2023-04-03T06:56:15;5.20;99.90
56374;DHT22;58212;47.034;7.376;2023-04-03T06:58:42;5.20;99.90
56374;DHT22;58212;47.034;7.376;2023-04-03T07:01:11;5.00;99.90
56374;DHT22;58212;47.034;7.376;2023-04-03T07:03:39;5.10;99.90
56374;DHT22;58212;47.034;7.376;2023-04-03T07:06:06;5.00;99.90
56374;DHT22;58212;47.034;7.376;2023-04-03T07:08:34;5.30;99.90
56374;DHT22;58212;47.034;7.376;2023-04-03T07:11:01;4.90;99.90
56374;DHT22;58212;47.034;7.376;2023-04-03T07:13:29;5.20;99.90
56374;DHT22;58212;47.034;7.376;2023-04-03T07:15:56;4.90;99.90
56374;DHT22;58212;47.034;7.376;2023-04-03T07:18:24;4.80;99.90
56374;DHT22;58212;47.034;7.376;2023-04-03T07:20:52;4.90;99.90
56374;DHT22;58212;47.034;7.376;2023-04-03T07:23:19;4.70;99.90
56374;DHT22;58212;47.034;7.376;2023-04-03T07:25:47;4.90;99.90
56374;DHT22;58212;47.034;7.376;2023-04-03T07:28:15;4.80;99.90
56374;DHT22;58212;47.034;7.376;2023-04-03T07:30:44;5.00;99.90
56374;DHT22;58212;47.034;7.376;2023-04-03T07:33:13;4.90;99.90
56374;DHT22;58212;47.034;7.376;2023-04-03T07:35:40;5.10;99.90
56374;DHT22;58212;47.034;7.376;2023-04-03T07:38:08;5.20;99.90
56374;DHT22;58212;47.034;7.376;2023-04-03T07:40:35;5.10;99.90
56374;DHT22;58212;47.034;7.376;2023-04-03T07:43:03;4.90;99.90
56374;DHT22;58212;47.034;7.376;2023-04-03T07:45:31;5.00;99.90
56374;DHT22;58212;47.034;7.376;2023-04-03T07:48:00;5.10;99.90
56374;DHT22;58212;47.034;7.376;2023-04-03T07:50:27;5.00;99.90
56374;DHT22;58212;47.034;7.376;2023-04-03T07:52:55;5.30;99.90
56374;DHT22;58212;47.034;7.376;2023-04-03T07:55:23;5.60;99.90
56374;DHT22;58212;47.034;7.376;2023-04-03T07:57:50;5.30;99.90
56374;DHT22;58212;47.034;7.376;2023-04-03T08:00:19;5.10;99.90
56374;DHT22;58212;47.034;7.376;2023-04-03T08:02:46;5.10;99.90
56374;DHT22;58212;47.034;7.376;2023-04-03T08:05:17;5.40;99.90
56374;DHT22;58212;47.034;7.376;2023-04-03T08:07:44;5.20;99.90
56374;DHT22;58212;47.034;7.376;2023-04-03T08:10:12;5.20;99.90
56374;DHT22;58212;47.034;7.376;2023-04-03T08:12:39;5.30;99.90
56374;DHT22;58212;47.034;7.376;2023-04-03T08:15:07;5.00;99.90
56374;DHT22;58212;47.034;7.376;2023-04-03T08:17:35;4.90;99.90
56374;DHT22;58212;47.034;7.376;2023-04-03T08:20:03;5.40;99.90
56374;DHT22;58212;47.034;7.376;2023-04-03T08:22:32;5.50;99.90
56374;DHT22;58212;47.034;7.376;2023-04-03T08:24:59;5.60;99.90
56374;DHT22;58212;47.034;7.376;2023-04-03T08:27:27;5.40;99.90
56374;DHT22;58212;47.034;7.376;2023-04-03T08:29:56;5.40;99.90
56374;DHT22;58212;47.034;7.376;2023-04-03T08:32:23;5.60;99.90
56374;DHT22;58212;47.034;7.376;2023-04-03T08:34:52;5.80;99.90
56374;DHT22;58212;47.034;7.376;2023-04-03T08:37:19;5.60;99.90
56374;DHT22;58212;47.034;7.376;2023-04-03T08:39:47;5.60;99.90
56374;DHT22;58212;47.034;7.376;2023-04-03T08:42:19;5.80;99.90
56374;DHT22;58212;47.034;7.376;2023-04-03T08:44:55;5.80;99.90
56374;DHT22;58212;47.034;7.376;2023-04-03T08:47:32;5.60;99.90
56374;DHT22;58212;47.034;7.376;2023-04-03T08:50:05;5.50;99.90
56374;DHT22;58212;47.034;7.376;2023-04-03T08:52:39;5.80;99.90
56374;DHT22;58212;47.034;7.376;2023-04-03T08:55:17;5.70;99.90
56374;DHT22;58212;47.034;7.376;2023-04-03T08:57:47;5.80;99.90
56374;DHT22;58212;47.034;7.376;2023-04-03T09:00:17;6.50;99.90
56374;DHT22;58212;47.034;7.376;2023-04-03T09:02:46;6.30;99.90
56374;DHT22;58212;47.034;7.376;2023-04-03T09:05:16;6.50;99.90
56374;DHT22;58212;47.034;7.376;2023-04-03T09:07:45;6.50;99.90
56374;DHT22;58212;47.034;7.376;2023-04-03T09:10:20;6.40;99.90
56374;DHT22;58212;47.034;7.376;2023-04-03T09:12:55;6.30;99.90
56374;DHT22;58212;47.034;7.376;2023-04-03T09:15:26;6.20;99.90
56374;DHT22;58212;47.034;7.376;2023-04-03T09:18:00;6.10;99.90
56374;DHT22;58212;47.034;7.376;2023-04-03T09:20:38;6.30;99.90
56374;DHT22;58212;47.034;7.376;2023-04-03T09:23:14;6.80;99.90
56374;DHT22;58212;47.034;7.376;2023-04-03T09:25:45;6.90;99.90
56374;DHT22;58212;47.034;7.376;2023-04-03T09:28:12;6.40;99.90
56374;DHT22;58212;47.034;7.376;2023-04-03T09:30:40;6.50;99.90
56374;DHT22;58212;47.034;7.376;2023-04-03T09:33:08;6.40;99.90
56374;DHT22;58212;47.034;7.376;2023-04-03T09:35:37;6.30;99.90
56374;DHT22;58212;47.034;7.376;2023-04-03T09:38:16;6.20;99.90
56374;DHT22;58212;47.034;7.376;2023-04-03T09:40:47;6.40;99.90
56374;DHT22;58212;47.034;7.376;2023-04-03T09:43:24;6.50;99.90
56374;DHT22;58212;47.034;7.376;2023-04-03T09:45:53;6.50;99.90
56374;DHT22;58212;47.034;7.376;2023-04-03T09:48:21;6.00;99.90
56374;DHT22;58212;47.034;7.376;2023-04-03T09:50:59;6.00;99.90
56374;DHT22;58212;47.034;7.376;2023-04-03T09:53:33;6.60;99.90
56374;DHT22;58212;47.034;7.376;2023-04-03T09:56:04;6.70;99.90
56374;DHT22;58212;47.034;7.376;2023-04-03T09:58:35;6.80;99.90
56374;DHT22;58212;47.034;7.376;2023-04-03T10:01:04;6.50;99.90
56374;DHT22;58212;47.034;7.376;2023-04-03T10:03:33;5.90;99.90
56374;DHT22;58212;47.034;7.376;2023-04-03T10:06:02;6.30;99.90
56374;DHT22;58212;47.034;7.376;2023-04-03T10:08:30;6.40;99.90
56374;DHT22;58212;47.034;7.376;2023-04-03T10:11:12;6.60;99.90
56374;DHT22;58212;47.034;7.376;2023-04-03T10:13:53;7.10;99.90
56374;DHT22;58212;47.034;7.376;2023-04-03T10:16:29;6.90;99.90
56374;DHT22;58212;47.034;7.376;2023-04-03T10:21:56;6.80;99.90
56374;DHT22;58212;47.034;7.376;2023-04-03T10:24:33;7.00;99.90
56374;DHT22;58212;47.034;7.376;2023-04-03T10:27:07;7.10;99.90
56374;DHT22;58212;47.034;7.376;2023-04-03T10:29:42;6.90;99.90
56374;DHT22;58212;47.034;7.376;2023-04-03T10:32:25;7.20;99.90
56374;DHT22;58212;47.034;7.376;2023-04-03T10:34:58;7.70;99.90
56374;DHT22;58212;47.034;7.376;2023-04-03T10:37:32;7.60;99.90
56374;DHT22;58212;47.034;7.376;2023-04-03T10:40:14;7.40;99.90
56374;DHT22;58212;47.034;7.376;2023-04-03T10:42:47;7.30;99.90
56374;DHT22;58212;47.034;7.376;2023-04-03T10:45:21;7.60;99.90
56374;DHT22;58212;47.034;7.376;2023-04-03T10:47:58;7.50;99.90
56374;DHT22;58212;47.034;7.376;2023-04-03T10:50:44;7.20;99.90
56374;DHT22;58212;47.034;7.376;2023-04-03T10:53:23;7.30;99.90
56374;DHT22;58212;47.034;7.376;2023-04-03T10:55:55;7.50;99.90
56374;DHT22;58212;47.034;7.376;2023-04-03T10:58:30;7.80;99.90
56374;DHT22;58212;47.034;7.376;2023-04-03T11:01:02;7.80;99.90
56374;DHT22;58212;47.034;7.376;2023-04-03T11:03:36;7.60;99.90
56374;DHT22;58212;47.034;7.376;2023-04-03T11:06:06;7.20;99.90
56374;DHT22;58212;47.034;7.376;2023-04-03T11:08:38;7.50;99.90
56374;DHT22;58212;47.034;7.376;2023-04-03T11:11:09;7.90;99.90
56374;DHT22;58212;47.034;7.376;2023-04-03T11:13:43;7.90;99.90
56374;DHT22;58212;47.034;7.376;2023-04-03T11:16:17;7.30;99.90
56374;DHT22;58212;47.034;7.376;2023-04-03T11:18:49;7.30;99.90
56374;DHT22;58212;47.034;7.376;2023-04-03T11:21:20;7.60;99.90
56374;DHT22;58212;47.034;7.376;2023-04-03T11:23:48;7.90;99.90
56374;DHT22;58212;47.034;7.376;2023-04-03T11:26:18;7.70;99.90
56374;DHT22;58212;47.034;7.376;2023-04-03T11:28:52;7.40;99.90
56374;DHT22;58212;47.034;7.376;2023-04-03T11:31:29;7.60;99.90
56374;DHT22;58212;47.034;7.376;2023-04-03T11:34:11;8.20;99.90
56374;DHT22;58212;47.034;7.376;2023-04-03T11:36:44;7.60;99.90
56374;DHT22;58212;47.034;7.376;2023-04-03T11:39:19;7.40;99.90
56374;DHT22;58212;47.034;7.376;2023-04-03T11:41:48;7.70;99.90
56374;DHT22;58212;47.034;7.376;2023-04-03T11:44:35;8.00;99.90
56374;DHT22;58212;47.034;7.376;2023-04-03T11:47:04;8.10;99.90
56374;DHT22;58212;47.034;7.376;2023-04-03T11:49:56;7.70;99.90
56374;DHT22;58212;47.034;7.376;2023-04-03T11:52:55;7.60;99.90
56374;DHT22;58212;47.034;7.376;2023-04-03T11:55:56;7.80;99.90
56374;DHT22;58212;47.034;7.376;2023-04-03T11:58:25;7.70;99.90
56374;DHT22;58212;47.034;7.376;2023-04-03T12:01:07;7.70;99.90
56374;DHT22;58212;47.034;7.376;2023-04-03T12:10:13;7.60;99.90
56374;DHT22;58212;47.034;7.376;2023-04-03T12:12:42;7.80;99.90
56374;DHT22;58212;47.034;7.376;2023-04-03T12:15:26;7.30;99.90
56374;DHT22;58212;47.034;7.376;2023-04-03T12:21:18;7.10;99.90
56374;DHT22;58212;47.034;7.376;2023-04-03T12:23:59;7.50;99.90
56374;DHT22;58212;47.034;7.376;2023-04-03T12:26:30;7.30;99.90
56374;DHT22;58212;47.034;7.376;2023-04-03T12:28:58;7.30;99.90
56374;DHT22;58212;47.034;7.376;2023-04-03T12:31:36;7.40;99.90
56374;DHT22;58212;47.034;7.376;2023-04-03T12:34:18;7.50;99.90
56374;DHT22;58212;47.034;7.376;2023-04-03T12:36:59;7.70;99.90
56374;DHT22;58212;47.034;7.376;2023-04-03T12:39:43;7.40;99.90
56374;DHT22;58212;47.034;7.376;2023-04-03T12:42:26;7.30;99.90
56374;DHT22;58212;47.034;7.376;2023-04-03T12:45:02;7.10;99.90
56374;DHT22;58212;47.034;7.376;2023-04-03T12:47:35;7.00;99.90
56374;DHT22;58212;47.034;7.376;2023-04-03T12:50:13;7.30;99.90
56374;DHT22;58212;47.034;7.376;2023-04-03T12:52:46;7.50;99.90
56374;DHT22;58212;47.034;7.376;2023-04-03T12:55:16;7.60;99.90
56374;DHT22;58212;47.034;7.376;2023-04-03T12:57:44;7.80;99.90
56374;DHT22;58212;47.034;7.376;2023-04-03T13:00:25;7.70;99.90
56374;DHT22;58212;47.034;7.376;2023-04-03T13:02:53;7.20;99.90
56374;DHT22;58212;47.034;7.376;2023-04-03T13:05:22;7.60;99.90
56374;DHT22;58212;47.034;7.376;2023-04-03T13:07:55;7.60;99.90
56374;DHT22;58212;47.034;7.376;2023-04-03T13:10:25;7.40;99.90
56374;DHT22;58212;47.034;7.376;2023-04-03T13:12:54;7.40;99.90
56374;DHT22;58212;47.034;7.376;2023-04-03T13:15:23;7.10;99.90
56374;DHT22;58212;47.034;7.376;2023-04-03T13:17:52;7.10;99.90
56374;DHT22;58212;47.034;7.376;2023-04-03T13:20:23;7.20;99.90
56374;DHT22;58212;47.034;7.376;2023-04-03T13:22:56;7.10;99.90
56374;DHT22;58212;47.034;7.376;2023-04-03T13:25:26;6.80;99.90
56374;DHT22;58212;47.034;7.376;2023-04-03T13:27:54;6.80;99.90
56374;DHT22;58212;47.034;7.376;2023-04-03T13:30:27;7.00;99.90
56374;DHT22;58212;47.034;7.376;2023-04-03T13:32:57;7.50;99.90
56374;DHT22;58212;47.034;7.376;2023-04-03T13:35:34;7.50;99.90
56374;DHT22;58212;47.034;7.376;2023-04-03T13:38:06;7.30;99.90
56374;DHT22;58212;47.034;7.376;2023-04-03T13:40:47;7.50;99.90
56374;DHT22;58212;47.034;7.376;2023-04-03T13:43:19;7.70;99.90
56374;DHT22;58212;47.034;7.376;2023-04-03T13:46:22;7.30;99.90
56374;DHT22;58212;47.034;7.376;2023-04-03T13:48:51;7.50;99.90
56374;DHT22;58212;47.034;7.376;2023-04-03T13:51:22;7.40;99.90
56374;DHT22;58212;47.034;7.376;2023-04-03T13:53:53;7.60;99.90
56374;DHT22;58212;47.034;7.376;2023-04-03T13:56:25;7.40;99.90
56374;DHT22;58212;47.034;7.376;2023-04-03T13:58:59;7.80;99.90
56374;DHT22;58212;47.034;7.376;2023-04-03T14:01:35;7.70;99.90
56374;DHT22;58212;47.034;7.376;2023-04-03T14:04:13;7.60;99.90
56374;DHT22;58212;47.034;7.376;2023-04-03T14:06:41;7.70;99.90
56374;DHT22;58212;47.034;7.376;2023-04-03T14:09:09;7.10;99.90
56374;DHT22;58212;47.034;7.376;2023-04-03T14:11:40;6.90;99.90
56374;DHT22;58212;47.034;7.376;2023-04-03T14:14:13;7.10;99.90
56374;DHT22;58212;47.034;7.376;2023-04-03T14:16:42;7.30;99.90
56374;DHT22;58212;47.034;7.376;2023-04-03T14:19:17;7.10;99.90
56374;DHT22;58212;47.034;7.376;2023-04-03T14:21:46;6.90;99.90
56374;DHT22;58212;47.034;7.376;2023-04-03T14:24:15;7.20;99.90
56374;DHT22;58212;47.034;7.376;2023-04-03T14:26:42;7.40;99.90
56374;DHT22;58212;47.034;7.376;2023-04-03T14:29:12;7.50;99.90
56374;DHT22;58212;47.034;7.376;2023-04-03T14:31:39;7.40;99.90
56374;DHT22;58212;47.034;7.376;2023-04-03T14:34:06;6.90;99.90
56374;DHT22;58212;47.034;7.376;2023-04-03T14:36:33;6.90;99.90
56374;DHT22;58212;47.034;7.376;2023-04-03T14:39:01;7.00;99.90
56374;DHT22;58212;47.034;7.376;2023-04-03T14:41:29;7.20;99.90
56374;DHT22;58212;47.034;7.376;2023-04-03T14:43:56;7.10;99.90
56374;DHT22;58212;47.034;7.376;2023-04-03T14:46:28;7.70;99.90
56374;DHT22;58212;47.034;7.376;2023-04-03T14:48:56;7.60;99.90
56374;DHT22;58212;47.034;7.376;2023-04-03T14:51:23;7.40;99.90
56374;DHT22;58212;47.034;7.376;2023-04-03T14:53:50;7.60;99.90
56374;DHT22;58212;47.034;7.376;2023-04-03T14:56:19;7.30;99.90
56374;DHT22;58212;47.034;7.376;2023-04-03T14:58:54;7.20;99.90
56374;DHT22;58212;47.034;7.376;2023-04-03T15:01:21;7.20;99.90
56374;DHT22;58212;47.034;7.376;2023-04-03T15:03:49;7.20;99.90
56374;DHT22;58212;47.034;7.376;2023-04-03T15:06:16;7.20;99.90
56374;DHT22;58212;47.034;7.376;2023-04-03T15:08:45;6.90;99.90
56374;DHT22;58212;47.034;7.376;2023-04-03T15:11:13;6.90;99.90
56374;DHT22;58212;47.034;7.376;2023-04-03T15:13:41;6.80;99.90
56374;DHT22;58212;47.034;7.376;2023-04-03T15:16:14;6.90;99.90
56374;DHT22;58212;47.034;7.376;2023-04-03T15:18:42;7.10;99.90
56374;DHT22;58212;47.034;7.376;2023-04-03T15:21:10;7.20;99.90
56374;DHT22;58212;47.034;7.376;2023-04-03T15:23:36;7.30;99.90
56374;DHT22;58212;47.034;7.376;2023-04-03T15:26:04;7.10;99.90
56374;DHT22;58212;47.034;7.376;2023-04-03T15:28:33;7.00;99.90
56374;DHT22;58212;47.034;7.376;2023-04-03T15:31:01;7.00;99.90
56374;DHT22;58212;47.034;7.376;2023-04-03T15:33:30;7.20;99.90
56374;DHT22;58212;47.034;7.376;2023-04-03T15:35:57;7.00;99.90
56374;DHT22;58212;47.034;7.376;2023-04-03T15:38:24;7.00;99.90
56374;DHT22;58212;47.034;7.376;2023-04-03T15:40:51;7.20;99.90
56374;DHT22;58212;47.034;7.376;2023-04-03T15:43:18;7.10;99.90
56374;DHT22;58212;47.034;7.376;2023-04-03T15:45:45;7.20;99.90
56374;DHT22;58212;47.034;7.376;2023-04-03T15:48:12;7.20;99.90
56374;DHT22;58212;47.034;7.376;2023-04-03T15:50:41;7.20;99.90
56374;DHT22;58212;47.034;7.376;2023-04-03T15:53:08;7.20;99.90
56374;DHT22;58212;47.034;7.376;2023-04-03T15:55:37;6.90;99.90
56374;DHT22;58212;47.034;7.376;2023-04-03T15:58:04;7.00;99.90
56374;DHT22;58212;47.034;7.376;2023-04-03T16:00:31;7.00;99.90
56374;DHT22;58212;47.034;7.376;2023-04-03T16:03:00;7.00;99.90
56374;DHT22;58212;47.034;7.376;2023-04-03T16:05:30;6.90;99.90
56374;DHT22;58212;47.034;7.376;2023-04-03T16:07:59;7.00;99.90
56374;DHT22;58212;47.034;7.376;2023-04-03T16:10:27;6.70;99.90
56374;DHT22;58212;47.034;7.376;2023-04-03T16:12:54;6.40;99.90
56374;DHT22;58212;47.034;7.376;2023-04-03T16:15:22;6.20;99.90
56374;DHT22;58212;47.034;7.376;2023-04-03T16:17:49;6.10;99.90
56374;DHT22;58212;47.034;7.376;2023-04-03T16:20:17;6.30;99.90